Time;durP1;ratioP1;P1;durP2;ratioP2;P2;SDS_P1;SDS_P2;PMS_P1;PMS_P2;Temp;Humidity;BMP_temperature;BMP_pressure;BME280_temperature;BME280_humidity;BME280_pressure;Samples;Min_cycle;Max_cycle;Signal;HPM_P1;HPM_P2
2021/07/19 00:00:41;;;;;;;17.69;10.64;;;;;;;24.45;60.66;99248.22;352784;152;864950;-62
2021/07/19 00:01:45;;;;;;;21.02;9.56;;;;;;;24.45;60.63;99250.86;339442;155;858396;-62
2021/07/19 00:02:47;;;;;;;17.67;9.91;;;;;;;24.45;60.50;99247.39;344150;153;858917;-62
2021/07/19 00:03:48;;;;;;;16.59;9.49;;;;;;;24.44;60.52;99248.35;343242;157;865116;-61
2021/07/19 00:04:50;;;;;;;21.19;9.99;;;;;;;24.41;60.50;99252.06;344064;152;865536;-61
2021/07/19 00:05:52;;;;;;;17.67;10.17;;;;;;;24.42;60.55;99255.56;346280;153;865002;-61
2021/07/19 00:06:55;;;;;;;17.97;11.15;;;;;;;24.40;60.48;99246.91;339606;157;859024;-62
2021/07/19 00:07:57;;;;;;;16.87;10.19;;;;;;;24.37;60.34;99247.97;339690;157;857165;-61
2021/07/19 00:08:58;;;;;;;17.66;10.58;;;;;;;24.32;60.42;99242.19;347102;154;857367;-61
2021/07/19 00:10:02;;;;;;;17.73;11.03;;;;;;;24.28;60.53;99248.67;348768;152;864942;-61
2021/07/19 00:11:03;;;;;;;17.98;10.85;;;;;;;24.29;60.68;99240.61;349926;154;864528;-61
2021/07/19 00:12:06;;;;;;;15.80;11.34;;;;;;;24.31;60.70;99238.69;348555;151;858855;-61
2021/07/19 00:13:08;;;;;;;18.39;11.23;;;;;;;24.31;60.61;99236.04;348594;152;859344;-61
2021/07/19 00:14:11;;;;;;;17.37;11.08;;;;;;;24.30;60.49;99237.00;347025;154;857408;-62
2021/07/19 00:15:16;;;;;;;15.17;10.87;;;;;;;24.23;60.58;99241.08;350106;154;857521;-61
2021/07/19 00:16:20;;;;;;;20.78;11.76;;;;;;;24.14;60.94;99239.99;347695;154;865692;-61
2021/07/19 00:17:21;;;;;;;21.02;11.59;;;;;;;24.11;61.07;99242.88;343425;154;859563;-61
2021/07/19 00:18:23;;;;;;;18.38;11.03;;;;;;;24.05;61.38;99230.12;345165;156;865215;-62
2021/07/19 00:19:25;;;;;;;18.16;11.92;;;;;;;23.99;61.46;99233.20;346685;153;858627;-61
2021/07/19 00:20:29;;;;;;;19.41;11.57;;;;;;;23.93;61.65;99242.41;348677;152;864775;-62
2021/07/19 00:21:30;;;;;;;22.10;11.90;;;;;;;23.89;62.06;99239.18;351400;153;856749;-61
2021/07/19 00:22:32;;;;;;;15.36;11.06;;;;;;;23.87;62.26;99232.30;340872;153;866123;-61
2021/07/19 00:23:34;;;;;;;16.16;11.74;;;;;;;23.87;62.19;99235.81;353710;150;866747;-61
2021/07/19 00:24:36;;;;;;;19.33;11.16;;;;;;;23.89;62.11;99231.25;351883;151;864504;-61
2021/07/19 00:25:37;;;;;;;14.99;11.30;;;;;;;23.96;61.95;99228.97;354517;151;864500;-62
2021/07/19 00:26:41;;;;;;;20.43;11.16;;;;;;;;;;354195;150;864915;-62
2021/07/19 00:27:43;;;;;;;15.78;10.46;;;;;;;;;;354254;151;857329;-61
2021/07/19 00:28:44;;;;;;;16.09;11.05;;;;;;;;;;351757;151;857341;-62
2021/07/19 00:29:46;;;;;;;16.46;11.75;;;;;;;;;;351923;151;857375;-61
2021/07/19 00:30:49;;;;;;;18.09;11.31;;;;;;;;;;344176;155;857284;-61
2021/07/19 00:31:51;;;;;;;18.52;11.60;;;;;;;;;;348518;154;857444;-61
2021/07/19 00:32:52;;;;;;;16.86;11.48;;;;;;;;;;349705;153;859055;-61
2021/07/19 00:33:54;;;;;;;19.45;11.34;;;;;;;;;;342377;156;858080;-61
2021/07/19 00:34:55;;;;;;;16.61;11.21;;;;;;;;;;340048;156;859822;-61
2021/07/19 00:35:57;;;;;;;20.23;11.68;;;;;;;;;;345668;156;858862;-61
2021/07/19 00:36:59;;;;;;;16.03;11.27;;;;;;;;;;342981;156;857352;-61
2021/07/19 00:38:00;;;;;;;16.07;11.41;;;;;;;;;;344518;154;864948;-61
2021/07/19 00:39:04;;;;;;;16.16;11.66;;;;;;;;;;343978;156;857336;-61
2021/07/19 00:40:07;;;;;;;18.29;11.23;;;;;;;;;;344643;156;859008;-61
2021/07/19 00:41:09;;;;;;;15.77;11.03;;;;;;;;;;348204;154;864617;-61
2021/07/19 00:42:10;;;;;;;18.02;11.09;;;;;;;;;;349664;151;857998;-61
2021/07/19 00:43:12;;;;;;;16.40;10.99;;;;;;;;;;350494;153;857934;-61
2021/07/19 00:44:17;;;;;;;17.13;11.29;;;;;;;;;;348816;152;857719;-61
2021/07/19 00:45:19;;;;;;;18.04;11.05;;;;;;;;;;348548;153;857227;-61
2021/07/19 00:46:21;;;;;;;15.70;11.35;;;;;;;;;;348497;154;860116;-62
2021/07/19 00:47:25;;;;;;;20.75;11.21;;;;;;;;;;348069;154;857381;-61
2021/07/19 00:48:26;;;;;;;20.21;11.56;;;;;;;;;;348954;151;857725;-61
2021/07/19 00:49:30;;;;;;;18.79;11.20;;;;;;;;;;350628;151;858269;-61
2021/07/19 00:50:33;;;;;;;19.01;10.54;;;;;;;;;;347780;152;857474;-61
2021/07/19 00:51:35;;;;;;;20.06;11.72;;;;;;;;;;346961;153;858241;-61
2021/07/19 00:52:37;;;;;;;17.09;11.44;;;;;;;;;;348567;154;859092;-61
2021/07/19 00:53:39;;;;;;;16.86;11.65;;;;;;;;;;353782;151;857269;-61
2021/07/19 00:54:41;;;;;;;15.92;11.44;;;;;;;;;;345440;153;857303;-60
2021/07/19 00:55:44;;;;;;;16.29;11.87;;;;;;;;;;344871;154;857310;-61
2021/07/19 00:56:48;;;;;;;19.61;11.16;;;;;;;;;;345118;156;857656;-61
2021/07/19 00:57:49;;;;;;;17.93;11.36;;;;;;;;;;344999;154;857306;-61
2021/07/19 00:58:51;;;;;;;18.71;11.93;;;;;;;;;;343496;155;859077;-61
2021/07/19 00:59:52;;;;;;;15.75;11.18;;;;;;;;;;346118;155;857387;-61
2021/07/19 01:00:57;;;;;;;19.15;11.91;;;;;;;;;;347236;151;860784;-60
2021/07/19 01:01:59;;;;;;;18.14;11.76;;;;;;;;;;344010;153;857322;-61
2021/07/19 01:03:01;;;;;;;19.62;12.71;;;;;;;;;;351283;152;857308;-61
2021/07/19 01:04:02;;;;;;;20.64;12.49;;;;;;;;;;354659;152;859000;-61
2021/07/19 01:05:05;;;;;;;16.94;12.04;;;;;;;;;;352544;152;859535;-61
2021/07/19 01:06:07;;;;;;;21.27;12.65;;;;;;;;;;352082;151;865001;-61
2021/07/19 01:07:09;;;;;;;22.15;12.28;;;;;;;;;;348370;154;859681;-61
2021/07/19 01:08:10;;;;;;;21.39;12.40;;;;;;;;;;348208;152;856811;-61
2021/07/19 01:09:12;;;;;;;19.24;12.86;;;;;;;;;;354919;150;857467;-61
2021/07/19 01:10:17;;;;;;;17.89;12.57;;;;;;;;;;346889;153;859150;-60
2021/07/19 01:11:19;;;;;;;19.17;11.80;;;;;;;;;;357851;149;857361;-60
2021/07/19 01:12:21;;;;;;;24.53;12.63;;;;;;;;;;357769;149;857090;-61
2021/07/19 01:13:23;;;;;;;20.06;12.62;;;;;;;;;;360086;147;859054;-62
2021/07/19 01:14:24;;;;;;;15.59;12.06;;;;;;;;;;357881;147;857318;-61
2021/07/19 01:15:27;;;;;;;21.49;12.70;;;;;;;;;;355643;150;865720;-61
2021/07/19 01:16:29;;;;;;;22.87;12.95;;;;;;;;;;357725;150;858777;-62
2021/07/19 01:17:31;;;;;;;19.38;11.92;;;;;;;;;;358580;150;858052;-61
2021/07/19 01:18:32;;;;;;;20.94;12.94;;;;;;;;;;357604;150;857353;-61
2021/07/19 01:19:35;;;;;;;20.04;13.14;;;;;;;;;;356992;148;857336;-61
2021/07/19 01:20:39;;;;;;;20.83;13.16;;;;;;;;;;357992;149;857119;-62
2021/07/19 01:21:45;;;;;;;23.81;13.61;;;;;;;;;;358850;150;864777;-62
2021/07/19 01:22:58;;;;;;;20.80;13.15;;;;;;;;;;357867;149;857316;-62
2021/07/19 01:24:04;;;;;;;23.49;13.01;;;;;;;;;;358998;147;858594;-61
2021/07/19 01:25:25;;;;;;;19.21;12.54;;;;;;;;;;359079;150;858313;-62
2021/07/19 01:26:38;;;;;;;21.99;12.43;;;;;;;;;;359272;148;858084;-61
2021/07/19 01:27:42;;;;;;;20.29;12.66;;;;;;;;;;355491;150;857236;-61
2021/07/19 01:28:44;;;;;;;24.72;13.49;;;;;;;;;;354616;150;860437;-61
2021/07/19 01:29:46;;;;;;;18.77;12.59;;;;;;;;;;357187;149;859184;-61
2021/07/19 01:30:48;;;;;;;17.85;12.53;;;;;;;;;;355989;149;858855;-61
2021/07/19 01:31:52;;;;;;;16.28;12.77;;;;;;;;;;351603;153;858352;-61
2021/07/19 01:32:53;;;;;;;21.24;13.07;;;;;;;;;;355150;149;857369;-61
2021/07/19 01:33:58;;;;;;;18.87;12.74;;;;;;;;;;359230;149;857571;-61
2021/07/19 01:34:59;;;;;;;18.44;12.51;;;;;;;;;;353681;151;857333;-61
2021/07/19 01:36:01;;;;;;;20.36;13.23;;;;;;;;;;354993;150;857359;-61
2021/07/19 01:37:03;;;;;;;21.86;13.06;;;;;;;;;;359054;149;859116;-61
2021/07/19 01:38:04;;;;;;;20.25;12.15;;;;;;;;;;356834;151;857398;-62
2021/07/19 01:39:06;;;;;;;22.00;12.71;;;;;;;;;;358456;150;865111;-61
2021/07/19 01:40:09;;;;;;;22.34;12.98;;;;;;;;;;356800;147;858029;-61
2021/07/19 01:41:11;;;;;;;15.67;11.47;;;;;;;;;;359280;149;859420;-61
2021/07/19 01:42:12;;;;;;;19.64;12.57;;;;;;;;;;355965;150;859032;-61
2021/07/19 01:43:14;;;;;;;17.36;12.19;;;;;;;;;;354766;150;857209;-61
2021/07/19 01:44:15;;;;;;;20.29;12.66;;;;;;;;;;357951;149;857262;-61
2021/07/19 01:45:17;;;;;;;21.89;13.80;;;;;;;;;;359327;150;858906;-61
2021/07/19 01:46:20;;;;;;;18.21;12.03;;;;;;;;;;356115;150;858950;-61
2021/07/19 01:47:21;;;;;;;19.08;12.44;;;;;;;;;;358631;147;857855;-61
2021/07/19 01:48:23;;;;;;;20.71;12.78;;;;;;;;;;357775;147;857478;-61
2021/07/19 01:49:24;;;;;;;18.24;12.09;;;;;;;;;;360043;147;859193;-61
2021/07/19 01:50:28;;;;;;;18.09;12.35;;;;;;;;;;357852;149;859969;-61
2021/07/19 01:51:30;;;;;;;18.78;12.39;;;;;;;;;;356262;149;858707;-61
2021/07/19 01:52:32;;;;;;;17.79;11.93;;;;;;;;;;359237;150;866392;-61
2021/07/19 01:53:33;;;;;;;17.91;12.21;;;;;;;;;;360071;147;858921;-61
2021/07/19 01:54:35;;;;;;;19.72;11.93;;;;;;;;;;358493;147;859803;-61
2021/07/19 01:55:37;;;;;;;20.59;12.40;;;;;;;;;;357712;150;865568;-61
2021/07/19 01:56:43;;;;;;;24.84;12.76;;;;;;;;;;354748;150;858533;-61
2021/07/19 01:57:44;;;;;;;24.76;13.16;;;;;;;;;;356714;149;859069;-61
2021/07/19 01:58:46;;;;;;;20.88;13.19;;;;;;;;;;355489;149;857194;-61
2021/07/19 01:59:48;;;;;;;22.90;13.51;;;;;;;;;;356377;147;858913;-61
2021/07/19 02:00:50;;;;;;;21.78;13.77;;;;;;;;;;358106;149;857472;-61
2021/07/19 02:01:52;;;;;;;24.72;13.41;;;;;;;;;;356320;149;858242;-61
2021/07/19 02:02:53;;;;;;;20.14;13.49;;;;;;;;;;359283;150;865117;-61
2021/07/19 02:03:55;;;;;;;20.28;12.69;;;;;;;;;;358601;150;857300;-61
2021/07/19 02:04:56;;;;;;;21.36;12.22;;;;;;;;;;358708;149;857198;-61
2021/07/19 02:05:58;;;;;;;20.21;12.63;;;;;;;;;;356723;149;864942;-61
2021/07/19 02:07:00;;;;;;;23.66;13.35;;;;;;;;;;354341;150;857305;-61
2021/07/19 02:08:02;;;;;;;16.16;11.91;;;;;;;;;;358170;147;868462;-61
2021/07/19 02:09:05;;;;;;;19.73;12.63;;;;;;;;;;356233;149;857447;-61
2021/07/19 02:10:09;;;;;;;18.70;12.63;;;;;;;;;;351431;153;858701;-61
2021/07/19 02:11:11;;;;;;;19.14;12.46;;;;;;;;;;354306;149;864612;-61
2021/07/19 02:12:12;;;;;;;20.08;12.61;;;;;;;;;;357520;149;862101;-61
2021/07/19 02:13:14;;;;;;;19.46;12.03;;;;;;;;;;353902;151;857191;-61
2021/07/19 02:14:15;;;;;;;17.14;12.30;;;;;;;;;;349803;151;857318;-61
2021/07/19 02:15:18;;;;;;;24.00;12.64;;;;;;;;;;357877;149;857381;-61
2021/07/19 02:16:19;;;;;;;18.33;12.28;;;;;;;;;;358599;149;859388;-61
2021/07/19 02:17:21;;;;;;;18.64;12.14;;;;;;;;;;358556;150;857265;-61
2021/07/19 02:18:23;;;;;;;21.67;13.21;;;;;;;;;;357836;150;865825;-62
2021/07/19 02:19:25;;;;;;;20.00;12.61;;;;;;;;;;358058;149;859395;-61
2021/07/19 02:20:27;;;;;;;20.70;13.16;;;;;;;;;;359306;150;859951;-61
2021/07/19 02:21:28;;;;;;;17.62;12.38;;;;;;;;;;358050;150;865727;-61
2021/07/19 02:22:30;;;;;;;20.15;12.12;;;;;;;;;;357769;149;857340;-61
2021/07/19 02:23:32;;;;;;;18.34;12.86;;;;;;;;;;359939;149;857348;-61
2021/07/19 02:24:34;;;;;;;26.05;12.79;;;;;;;;;;353499;149;857345;-61
2021/07/19 02:25:35;;;;;;;20.77;12.90;;;;;;;;;;356434;150;857244;-61
2021/07/19 02:26:38;;;;;;;22.33;13.12;;;;;;;;;;358271;149;858230;-61
2021/07/19 02:27:41;;;;;;;19.93;13.51;;;;;;;;;;358291;150;857317;-61
2021/07/19 02:28:43;;;;;;;21.03;13.70;;;;;;;;;;351034;150;857391;-62
2021/07/19 02:29:44;;;;;;;21.22;13.47;;;;;;;;;;351688;150;857265;-61
2021/07/19 02:30:47;;;;;;;20.86;14.74;;;;;;;;;;358331;150;857827;-61
2021/07/19 02:31:49;;;;;;;20.15;13.57;;;;;;;;;;351373;153;857398;-61
2021/07/19 02:32:53;;;;;;;22.84;13.75;;;;;;;;;;355290;150;864774;-60
2021/07/19 02:33:55;;;;;;;22.34;14.11;;;;;;;;;;352933;150;864818;-60
2021/07/19 02:34:56;;;;;;;20.52;13.11;;;;;;;;;;356902;150;859918;-60
2021/07/19 02:35:58;;;;;;;18.11;13.04;;;;;;;;;;356987;149;857397;-60
2021/07/19 02:37:00;;;;;;;20.81;12.48;;;;;;;;;;358991;147;859042;-61
2021/07/19 02:38:03;;;;;;;19.44;12.21;;;;;;;;;;359620;149;857764;-61
2021/07/19 02:39:05;;;;;;;18.62;12.69;;;;;;;;;;358405;149;857300;-60
2021/07/19 02:40:07;;;;;;;17.75;12.25;;;;;;;;;;356812;149;857397;-61
2021/07/19 02:41:09;;;;;;;18.81;11.76;;;;;;;;;;357902;150;857501;-60
2021/07/19 02:42:11;;;;;;;24.36;12.54;;;;;;;;;;356385;147;860453;-61
2021/07/19 02:43:12;;;;;;;20.44;12.43;;;;;;;;;;357955;147;857370;-61
2021/07/19 02:44:14;;;;;;;20.90;13.38;;;;;;;;;;358498;149;857210;-61
2021/07/19 02:45:16;;;;;;;23.35;13.49;;;;;;;;;;358345;150;857192;-61
2021/07/19 02:46:22;;;;;;;23.99;14.41;;;;;;;;;;355859;149;857272;-61
2021/07/19 02:47:24;;;;;;;20.92;13.31;;;;;;;;;;353316;150;857281;-61
2021/07/19 02:48:28;;;;;;;24.11;13.35;;;;;;;;;;349983;151;857226;-61
2021/07/19 02:49:30;;;;;;;20.74;13.38;;;;;;;;;;354212;150;857280;-62
2021/07/19 02:50:33;;;;;;;22.06;13.18;;;;;;;;;;356451;149;857416;-62
2021/07/19 02:51:35;;;;;;;24.89;13.71;;;;;;;;;;359081;150;857221;-61
2021/07/19 02:52:36;;;;;;;24.81;14.34;;;;;;;;;;359006;150;863519;-61
2021/07/19 02:53:38;;;;;;;23.41;13.68;;;;;;;;;;357831;147;865298;-62
2021/07/19 02:54:39;;;;;;;24.15;14.15;;;;;;;;;;355722;149;857328;-62
2021/07/19 02:55:42;;;;;;;27.44;14.76;;;;;;;;;;352979;150;858213;-61
2021/07/19 02:56:44;;;;;;;23.15;14.29;;;;;;;;;;353602;150;860449;-60
2021/07/19 02:57:45;;;;;;;24.05;14.19;;;;;;;;;;357328;149;865451;-62
2021/07/19 02:58:47;;;;;;;28.69;15.01;;;;;;;;;;358977;150;866092;-62
2021/07/19 02:59:49;;;;;;;29.89;14.79;;;;;;;;;;358703;150;859481;-62
2021/07/19 03:00:52;;;;;;;23.54;14.67;;;;;;;;;;357255;149;858829;-61
2021/07/19 03:01:55;;;;;;;24.81;13.46;;;;;;;;;;358444;149;857424;-61
2021/07/19 03:03:01;;;;;;;25.21;14.61;;;;;;;;;;358780;147;858773;-61
2021/07/19 03:04:02;;;;;;;20.91;13.41;;;;;;;;;;355812;149;864916;-61
2021/07/19 03:05:04;;;;;;;21.14;14.16;;;;;;;;;;356854;149;859793;-62
2021/07/19 03:06:09;;;;;;;22.93;13.97;;;;;;;;;;360852;147;858838;-61
2021/07/19 03:07:11;;;;;;;20.99;13.65;;;;;;;;;;357062;149;858883;-62
2021/07/19 03:08:13;;;;;;;26.08;15.57;;;;;;;;;;356223;147;864929;-61
2021/07/19 03:09:14;;;;;;;23.76;15.15;;;;;;;;;;355416;150;860321;-61
2021/07/19 03:10:18;;;;;;;29.57;14.88;;;;;;;;;;359646;149;858202;-60
2021/07/19 03:11:21;;;;;;;27.01;14.45;;;;;;;;;;359091;149;858923;-61
2021/07/19 03:12:23;;;;;;;24.84;15.61;;;;;;;;;;359778;149;857258;-61
2021/07/19 03:13:26;;;;;;;23.37;14.40;;;;;;;;;;355687;149;857338;-60
2021/07/19 03:14:28;;;;;;;23.93;15.19;;;;;;;;;;357364;146;857253;-61
2021/07/19 03:15:30;;;;;;;23.21;14.99;;;;;;;;;;358804;146;857815;-60
2021/07/19 03:16:34;;;;;;;23.72;15.46;;;;;;;;;;356217;149;857360;-58
2021/07/19 03:17:37;;;;;;;27.53;15.85;;;;;;;;;;358610;149;859878;-62
2021/07/19 03:18:39;;;;;;;24.08;14.68;;;;;;;;;;359018;148;858031;-61
2021/07/19 03:19:41;;;;;;;23.99;14.66;;;;;;;;;;358885;147;857385;-60
2021/07/19 03:20:43;;;;;;;25.62;14.13;;;;;;;;;;356127;149;866097;-61
2021/07/19 03:21:45;;;;;;;22.48;13.91;;;;;;;;;;349444;151;859758;-61
2021/07/19 03:22:48;;;;;;;22.06;14.38;;;;;;;;;;356820;150;857249;-60
2021/07/19 03:23:50;;;;;;;21.98;13.97;;;;;;;;;;355348;151;857409;-59
2021/07/19 03:24:52;;;;;;;26.33;15.15;;;;;;;;;;355922;149;858205;-60
2021/07/19 03:25:54;;;;;;;24.94;15.12;;;;;;;;;;354601;149;858893;-60
2021/07/19 03:26:56;;;;;;;26.30;14.85;;;;;;;;;;350639;151;864859;-60
2021/07/19 03:27:58;;;;;;;21.53;13.89;;;;;;;;;;351414;151;867138;-60
2021/07/19 03:29:00;;;;;;;23.04;14.46;;;;;;;;;;353868;150;857362;-60
2021/07/19 03:30:03;;;;;;;24.25;14.20;;;;;;;;;;354272;151;857334;-60
2021/07/19 03:31:04;;;;;;;23.24;14.98;;;;;;;;;;354927;151;857608;-59
2021/07/19 03:32:07;;;;;;;26.17;14.30;;;;;;;;;;354626;150;857474;-60
2021/07/19 03:33:09;;;;;;;23.14;14.05;;;;;;;;;;353271;150;866168;-60
2021/07/19 03:34:13;;;;;;;24.71;14.79;;;;;;;;;;352811;151;863899;-60
2021/07/19 03:35:16;;;;;;;21.66;13.88;;;;;;;;;;354511;151;857356;-60
2021/07/19 03:36:18;;;;;;;28.41;14.78;;;;;;;;;;355927;149;858722;-60
2021/07/19 03:37:20;;;;;;;28.82;15.08;;;;;;;;;;356606;151;857223;-60
2021/07/19 03:38:21;;;;;;;25.09;15.58;;;;;;;;;;354543;151;857269;-61
2021/07/19 03:39:23;;;;;;;23.99;14.66;;;;;;;;;;354926;149;857311;-60
2021/07/19 03:40:25;;;;;;;26.06;14.97;;;;;;;;;;355519;151;858912;-61
2021/07/19 03:41:28;;;;;;;22.14;14.09;;;;;;;;;;353708;151;865715;-60
2021/07/19 03:42:30;;;;;;;25.36;13.71;;;;;;;;;;353993;151;858247;-61
2021/07/19 03:43:31;;;;;;;26.74;14.14;;;;;;;;;;356319;150;857400;-61
2021/07/19 03:44:34;;;;;;;23.49;14.57;;;;;;;;;;354701;151;859502;-61
2021/07/19 03:45:36;;;;;;;25.01;14.71;;;;;;;;;;351221;151;859113;-60
2021/07/19 03:46:41;;;;;;;22.32;13.11;;;;;;;;;;352952;150;858755;-60
2021/07/19 03:47:43;;;;;;;22.59;13.99;;;;;;;;;;352485;151;858568;-60
2021/07/19 03:48:45;;;;;;;21.07;13.53;;;;;;;;;;350938;151;857397;-61
2021/07/19 03:49:46;;;;;;;24.96;14.41;;;;;;;;;;355701;149;858249;-62
2021/07/19 03:50:50;;;;;;;23.22;14.71;;;;;;;;;;356585;150;859592;-61
2021/07/19 03:51:51;;;;;;;23.25;13.86;;;;;;;;;;352862;151;857436;-61
2021/07/19 03:52:53;;;;;;;24.78;15.05;;;;;;;;;;353362;151;857907;-61
2021/07/19 03:53:54;;;;;;;22.51;13.80;;;;;;;;;;354498;149;859219;-59
2021/07/19 03:54:57;;;;;;;26.64;14.66;;;;;;;;;;354211;151;858996;-61
2021/07/19 03:55:59;;;;;;;23.86;14.92;;;;;;;;;;352211;151;858274;-61
2021/07/19 03:57:02;;;;;;;23.60;14.92;;;;;;;;;;353503;149;864801;-61
2021/07/19 03:58:04;;;;;;;23.32;14.79;;;;;;;;;;355128;151;859499;-61
2021/07/19 03:59:06;;;;;;;25.36;14.54;;;;;;;;;;356835;151;866147;-60
2021/07/19 04:00:08;;;;;;;21.66;13.56;;;;;;;;;;354533;150;857435;-61
2021/07/19 04:01:10;;;;;;;25.25;14.21;;;;;;;;;;354533;149;857399;-60
2021/07/19 04:02:13;;;;;;;24.42;14.11;;;;;;;;;;353167;151;859176;-61
2021/07/19 04:03:22;;;;;;;25.16;14.87;;;;;;;;;;355349;151;864843;-61
2021/07/19 04:04:29;;;;;;;27.82;14.61;;;;;;;;;;353596;150;858638;-61
2021/07/19 04:05:24;;;;;;;23.39;14.42;;;;;;;;;;355424;151;859026;-61
2021/07/19 04:06:26;;;;;;;26.14;14.23;;;;;;;;;;355033;151;857242;-61
2021/07/19 04:07:27;;;;;;;24.96;14.84;;;;;;;;;;353946;149;857627;-62
2021/07/19 04:08:32;;;;;;;26.36;14.42;;;;;;;;;;351802;151;859082;-61
2021/07/19 04:09:33;;;;;;;26.78;14.49;;;;;;;;;;354313;151;858896;-60
2021/07/19 04:10:36;;;;;;;22.73;14.68;;;;;;;;;;353529;150;857260;-61
2021/07/19 04:11:38;;;;;;;21.96;14.14;;;;;;;;;;355120;150;857380;-61
2021/07/19 04:12:40;;;;;;;21.99;13.70;;;;;;;;;;356479;150;857429;-60
2021/07/19 04:13:42;;;;;;;26.95;14.53;;;;;;;;;;357394;150;859684;-60
2021/07/19 04:14:44;;;;;;;22.67;14.00;;;;;;;;;;357795;147;859441;-61
2021/07/19 04:15:48;;;;;;;28.32;14.64;;;;;;;;;;357386;150;865939;-61
2021/07/19 04:16:51;;;;;;;26.38;14.45;;;;;;;;;;356442;149;859724;-61
2021/07/19 04:17:52;;;;;;;23.96;14.59;;;;;;;;;;357201;149;857338;-61
2021/07/19 04:18:54;;;;;;;26.62;14.36;;;;;;;;;;357396;147;858970;-60
2021/07/19 04:19:56;;;;;;;26.42;15.41;;;;;;;;;;356254;147;857897;-60
2021/07/19 04:20:58;;;;;;;25.19;14.13;;;;;;;;;;353796;149;858704;-62
2021/07/19 04:21:59;;;;;;;17.82;13.15;;;;;;;;;;356827;149;860148;-62
2021/07/19 04:23:01;;;;;;;25.63;13.64;;;;;;;;;;354328;150;857360;-60
2021/07/19 04:24:03;;;;;;;25.39;14.85;;;;;;;;;;355257;149;865000;-64
2021/07/19 04:25:05;;;;;;;22.90;13.96;;;;;;;;;;357566;149;857338;-64
2021/07/19 04:26:12;;;;;;;26.90;13.89;;;;;;;;;;356099;150;857495;-63
2021/07/19 04:27:14;;;;;;;24.79;13.90;;;;;;;;;;356879;150;857292;-62
2021/07/19 04:28:17;;;;;;;23.86;13.38;;;;;;;;;;357298;147;859966;-63
2021/07/19 04:29:22;;;;;;;23.53;14.38;;;;;;;;;;358189;150;865628;-60
2021/07/19 04:30:27;;;;;;;26.48;14.26;;;;;;;;;;355317;150;859424;-61
2021/07/19 04:31:29;;;;;;;21.02;13.26;;;;;;;;;;354727;149;857586;-61
2021/07/19 04:32:31;;;;;;;21.61;13.42;;;;;;;;;;355683;149;866514;-60
2021/07/19 04:33:32;;;;;;;27.58;13.24;;;;;;;;;;357259;147;864812;-63
2021/07/19 04:34:35;;;;;;;29.99;13.48;;;;;;;;;;356693;147;858099;-61
2021/07/19 04:35:36;;;;;;;23.02;13.43;;;;;;;;;;358008;149;857516;-60
2021/07/19 04:36:41;;;;;;;20.68;12.94;;;;;;;;;;357950;150;857366;-60
2021/07/19 04:37:42;;;;;;;20.91;12.81;;;;;;;;;;357985;150;857332;-62
2021/07/19 04:38:46;;;;;;;24.72;12.99;;;;;;;;;;357131;149;857886;-63
2021/07/19 04:39:47;;;;;;;20.94;12.90;;;;;;;;;;357403;149;857378;-64
2021/07/19 04:40:54;;;;;;;21.73;12.91;;;;;;;;;;354233;150;857844;-62
2021/07/19 04:41:56;;;;;;;20.02;12.69;;;;;;;;;;356319;147;859019;-60
2021/07/19 04:42:57;;;;;;;25.58;12.72;;;;;;;;;;357940;149;857315;-60
2021/07/19 04:43:59;;;;;;;22.40;12.67;;;;;;;;;;355381;150;864674;-59
2021/07/19 04:45:01;;;;;;;18.57;12.32;;;;;;;;;;356166;149;866546;-62
2021/07/19 04:46:02;;;;;;;30.17;13.19;;;;;;;;;;356967;149;857539;-61
2021/07/19 04:47:04;;;;;;;20.27;12.54;;;;;;;;;;355932;150;860311;-59
2021/07/19 04:48:06;;;;;;;24.69;12.39;;;;;;;;;;356433;150;857442;-59
2021/07/19 04:49:08;;;;;;;23.29;12.77;;;;;;;;;;352545;151;857545;-60
2021/07/19 04:50:14;;;;;;;21.59;12.71;;;;;;;;;;349589;153;857463;-60
2021/07/19 04:51:16;;;;;;;24.14;12.65;;;;;;;;;;352777;149;859174;-60
2021/07/19 04:52:17;;;;;;;25.02;13.10;;;;;;;;;;355035;149;857285;-62
2021/07/19 04:53:19;;;;;;;26.55;12.39;;;;;;;;;;355110;149;860359;-60
2021/07/19 04:54:22;;;;;;;25.69;12.64;;;;;;;;;;355000;151;859184;-62
2021/07/19 04:55:24;;;;;;;20.71;12.38;;;;;;;;;;353452;151;858595;-60
2021/07/19 04:56:27;;;;;;;32.14;15.24;;;;;;;;;;356142;148;858960;-61
2021/07/19 04:57:28;;;;;;;29.84;13.49;;;;;;;;;;350961;150;858847;-60
2021/07/19 04:58:30;;;;;;;22.83;12.46;;;;;;;;;;354463;150;859239;-61
2021/07/19 04:59:33;;;;;;;23.46;13.37;;;;;;;;;;355638;149;858342;-60
2021/07/19 05:00:38;;;;;;;21.37;12.50;;;;;;;;;;355328;149;857028;-59
2021/07/19 05:01:39;;;;;;;20.15;11.80;;;;;;;;;;353472;149;856283;-62
2021/07/19 05:02:41;;;;;;;25.37;11.92;;;;;;;;;;355180;149;856287;-61
2021/07/19 05:03:44;;;;;;;23.51;12.74;;;;;;;;;;357310;149;856475;-60
2021/07/19 05:04:47;;;;;;;22.65;12.83;;;;;;;;;;354265;150;856443;-59
2021/07/19 05:05:49;;;;;;;21.71;12.88;;;;;;;;;;357705;150;863984;-60
2021/07/19 05:06:51;;;;;;;33.68;12.68;;;;;;;;;;358367;150;864843;-61
2021/07/19 05:07:53;;;;;;;22.19;12.97;;;;;;;;;;358112;149;858282;-62
2021/07/19 05:08:55;;;;;;;25.39;12.21;;;;;;;;;;357266;150;858655;-62
2021/07/19 05:09:57;;;;;;;20.54;11.86;;;;;;;;;;355523;150;858162;-61
2021/07/19 05:10:59;;;;;;;22.35;12.48;;;;;;;;;;357973;149;859369;-63
2021/07/19 05:12:00;;;;;;;24.35;12.65;;;;;;;;;;358273;150;858829;-62
2021/07/19 05:13:02;;;;;;;21.87;12.76;;;;;;;;;;357851;150;857424;-62
2021/07/19 05:14:03;;;;;;;22.19;11.99;;;;;;;;;;357721;147;857506;-60
2021/07/19 05:15:06;;;;;;;19.97;12.32;;;;;;;;;;352827;150;857446;-60
2021/07/19 05:16:08;;;;;;;28.31;12.46;;;;;;;;;;353976;150;857535;-61
2021/07/19 05:17:10;;;;;;;25.34;11.65;;;;;;;;;;356511;150;859774;-62
2021/07/19 05:18:11;;;;;;;23.28;11.99;;;;;;;;;;353765;149;856746;-60
2021/07/19 05:19:13;;;;;;;21.41;12.31;;;;;;;;;;355922;149;857419;-60
2021/07/19 05:20:16;;;;;;;27.69;11.37;;;;;;;;;;355211;150;858900;-60
2021/07/19 05:21:18;;;;;;;18.26;11.40;;;;;;;;;;357018;148;857281;-59
2021/07/19 05:22:19;;;;;;;19.47;11.38;;;;;;;;;;347996;152;857375;-62
2021/07/19 05:23:22;;;;;;;20.25;12.17;;;;;;;;;;348380;151;859130;-60
2021/07/19 05:24:30;;;;;;;20.09;11.73;;;;;;;;;;358235;149;865453;-61
2021/07/19 05:25:32;;;;;;;20.14;11.01;;;;;;;;;;357295;150;864954;-59
2021/07/19 05:26:36;;;;;;;24.66;11.04;;;;;;;;;;353514;150;859215;-60
2021/07/19 05:27:37;;;;;;;22.23;11.33;;;;;;;;;;358058;149;864944;-61
2021/07/19 05:28:39;;;;;;;17.88;11.00;;;;;;;;;;356565;149;857849;-59
2021/07/19 05:29:40;;;;;;;25.58;11.24;;;;;;;;;;356718;150;859319;-59
2021/07/19 05:30:46;;;;;;;20.73;10.89;;;;;;;;;;356707;149;857873;-60
2021/07/19 05:31:48;;;;;;;16.94;10.34;;;;;;;;;;357492;149;858410;-59
2021/07/19 05:32:50;;;;;;;21.98;10.69;;;;;;;;;;356824;149;859660;-60
2021/07/19 05:33:52;;;;;;;23.65;11.69;;;;;;;;;;355000;150;857484;-59
2021/07/19 05:34:53;;;;;;;22.27;12.15;;;;;;;;;;358246;149;856296;-60
2021/07/19 05:35:55;;;;;;;25.98;15.16;;;;;;;;;;359136;149;864080;-60
2021/07/19 05:36:57;;;;;;;19.41;11.56;;;;;;;;;;359823;149;859039;-59
2021/07/19 05:37:59;;;;;;;19.55;10.86;;;;;;;;;;358302;149;865636;-60
2021/07/19 05:39:00;;;;;;;20.06;11.06;;;;;;;;;;357715;147;858304;-60
2021/07/19 05:40:02;;;;;;;13.85;10.45;;;;;;;;;;357422;149;859768;-60
2021/07/19 05:41:07;;;;;;;23.83;11.31;;;;;;;;;;358985;149;858069;-60
2021/07/19 05:42:07;;;;;;;18.66;10.68;;;;;;;;;;357555;149;864884;-60
2021/07/19 05:43:09;;;;;;;24.56;10.89;;;;;;;;;;359307;150;860158;-60
2021/07/19 05:44:10;;;;;;;20.30;10.14;;;;;;;;;;359089;150;857489;-60
2021/07/19 05:45:12;;;;;;;17.38;10.31;;;;;;;;;;357561;149;857520;-60
2021/07/19 05:46:14;;;;;;;22.66;10.69;;;;;;;;;;359525;149;865006;-61
2021/07/19 05:47:15;;;;;;;31.69;10.69;;;;;;;;;;358263;149;857253;-60
2021/07/19 05:48:17;;;;;;;20.81;10.39;;;;;;;;;;357513;149;857426;-60
2021/07/19 05:49:19;;;;;;;19.87;11.21;;;;;;;;;;359279;149;857371;-61
2021/07/19 05:50:21;;;;;;;19.76;10.54;;;;;;;;;;358939;150;858171;-61
2021/07/19 05:51:23;;;;;;;21.94;10.33;;;;;;;;;;357172;149;865391;-61